LS Concorde — ZDHJ7 — position and weather

sailwx.info

Track history (hours):
 
Tides and Currents Weather Stations Pressure Air Temp Water Temp Dewpoint Dewpoint Depression Visibility Wind Speed Wind Dir Waves Ship Positions

LS Concorde

Last reported at 2015-Aug-03 11:33 UTC. Time now 2015-Aug-03 13:07 UTC.
Position N 51°07' E 001°19'.

Length 99 m; draft 5.7 m.

Type: Tanker. MMSI: 236329000.

Date/timePositionNaut miles runAvg speedWind from/ knotsBaromVisibWave heightAir tempDewpointWater temp
2015-Aug-03 11:33N 51°07' E 001°19'0 0.0
2015-Aug-03 10:33N 51°07' E 001°19'0 0.3
2015-Aug-03 09:33N 51°07' E 001°20'7 6.5
2015-Aug-03 08:33N 51°08' E 001°30'7 6.6
2015-Aug-03 07:33N 51°14' E 001°36'4 3.9
2015-Aug-03 06:33N 51°17' E 001°40'7 6.9
2015-Aug-03 05:33N 51°10' E 001°36'10 9.9
2015-Aug-03 04:33N 51°03' E 001°46'9 8.9
2015-Aug-03 03:33N 51°03' E 002°00'8 8.3
2015-Aug-03 02:33N 51°04' E 002°13'5 5.1
2015-Aug-03 01:33N 51°03' E 002°21'0 0.5
2015-Aug-03 00:33N 51°03' E 002°22'0 0.0
2015-Aug-02 23:33N 51°03' E 002°22'0 0.0
2015-Aug-02 22:33N 51°03' E 002°22'0 0.1
2015-Aug-02 21:33N 51°03' E 002°22'1 1.4
2015-Aug-02 20:29N 51°03' E 002°20'0 0.0
2015-Aug-02 19:26N 51°03' E 002°20'0 0.0
2015-Aug-02 17:23N 51°03' E 002°19'0 0.0
2015-Aug-02 16:29N 51°03' E 002°19'0 0.0
2015-Aug-02 15:32N 51°03' E 002°19'0 0.0
2015-Aug-02 14:32N 51°03' E 002°20'1 1.1
2015-Aug-02 13:33N 51°03' E 002°21'5 4.7
2015-Aug-02 12:33N 51°04' E 002°14'1312.6
2015-Aug-02 11:33N 51°02' E 001°54'7 6.6
2015-Aug-02 10:33N 51°03' E 001°43'7 7.0
2015-Aug-02 09:33N 51°08' E 001°36'4 3.6
2015-Aug-02 08:33N 51°11' E 001°33'7 7.3
2015-Aug-02 07:33N 51°08' E 001°23'2 1.7
2015-Aug-02 06:33N 51°08' E 001°21'0 0.0
2015-Aug-02 05:31N 51°08' E 001°21'0 0.0
2015-Aug-02 04:33N 51°08' E 001°21'0 0.1
2015-Aug-02 03:24N 51°07' E 001°21'0 0.0
2015-Aug-02 02:30N 51°07' E 001°21'0 0.0
2015-Aug-02 01:33N 51°07' E 001°21'0 0.0
2015-Aug-02 00:33N 51°07' E 001°21'0 0.0
2015-Aug-01 23:31N 51°07' E 001°21'0 0.0
2015-Aug-01 22:33N 51°07' E 001°21'0 0.2
2015-Aug-01 21:28N 51°08' E 001°21'0 0.0
2015-Aug-01 20:22N 51°07' E 001°21'0 0.1
2015-Aug-01 19:28N 51°07' E 001°21'0 0.0
2015-Aug-01 18:19N 51°07' E 001°21'0 0.0
2015-Aug-01 17:31N 51°07' E 001°21'0 0.0
2015-Aug-01 16:31N 51°07' E 001°21'0 0.0
2015-Aug-01 15:31N 51°07' E 001°21'0 0.0
2015-Aug-01 14:31N 51°07' E 001°21'0 0.0
2015-Aug-01 13:31N 51°07' E 001°21'1 0.6
2015-Aug-01 12:32N 51°07' E 001°20'1 0.6
2015-Aug-01 11:33N 51°07' E 001°19'0 0.0
2015-Aug-01 10:33N 51°07' E 001°19'0 0.0
2015-Aug-01 09:33N 51°07' E 001°19'0 0.0
2015-Aug-01 08:33N 51°07' E 001°19'0 0.0
2015-Aug-01 07:33N 51°07' E 001°19'0 0.0
2015-Aug-01 06:34N 51°07' E 001°19'5 4.9
2015-Aug-01 05:33N 51°08' E 001°27'4 3.6
2015-Aug-01 04:33N 51°10' E 001°32'7 7.3
2015-Aug-01 03:33N 51°16' E 001°36'8 7.5
2015-Aug-01 02:33N 51°23' E 001°33'7 7.3
2015-Aug-01 01:33N 51°28' E 001°24'1010.2
2015-Aug-01 00:33N 51°29' E 001°08'9 9.0
2015-Jul-31 23:33N 51°29' E 000°53'8 8.4
2015-Jul-31 22:33N 51°30' E 000°40'4 4.0
2015-Jul-31 21:32N 51°31' E 000°33'0 0.0
2015-Jul-31 20:32N 51°31' E 000°33'0 0.0
2015-Jul-31 19:32N 51°31' E 000°33'0 0.0
2015-Jul-31 18:33N 51°31' E 000°33'0 0.0
2015-Jul-31 17:33N 51°31' E 000°33'0 0.0
2015-Jul-31 16:33N 51°31' E 000°33'0 0.0
2015-Jul-31 15:33N 51°31' E 000°33'0 0.0
2015-Jul-31 14:33N 51°31' E 000°33'0 0.0
2015-Jul-31 13:33N 51°31' E 000°33'0 0.0
2015-Jul-31 12:33N 51°31' E 000°33'0 0.0
2015-Jul-31 11:33N 51°31' E 000°33'0 0.0
2015-Jul-31 10:33N 51°31' E 000°33'0 0.0
2015-Jul-31 09:33N 51°31' E 000°33'0 0.0
2015-Jul-31 08:33N 51°31' E 000°33'7 7.3
2015-Jul-31 07:33N 51°30' E 000°45'8 7.9
2015-Jul-31 06:31N 51°30' E 000°58'0 0.0
2015-Jul-31 05:31N 51°30' E 000°58'0 0.0
2015-Jul-31 04:31N 51°30' E 000°58'0 0.0
2015-Jul-31 03:25N 51°30' E 000°58'0 0.0
2015-Jul-31 02:25N 51°30' E 000°58'0 0.0
2015-Jul-31 01:31N 51°30' E 000°58'0 0.1
2015-Jul-31 00:31N 51°30' E 000°58'0 0.1
2015-Jul-30 23:31N 51°30' E 000°58'0 0.0
2015-Jul-30 22:31N 51°30' E 000°58'1 1.3
2015-Jul-30 21:33N 51°30' E 000°56'1111.4
2015-Jul-30 20:33N 51°29' E 001°15'1010.1
2015-Jul-30 19:32N 51°30' E 001°31'0 0.0
2015-Jul-30 18:33N 51°30' E 001°31'0 0.1
2015-Jul-30 17:33N 51°30' E 001°31'0 0.0
2015-Jul-30 16:33N 51°30' E 001°31'0 0.0
2015-Jul-30 15:33N 51°30' E 001°31'0 0.1
2015-Jul-30 14:33N 51°31' E 001°31'0 0.0
2015-Jul-30 13:33N 51°31' E 001°31'0 0.0
2015-Jul-30 12:33N 51°31' E 001°31'0 0.2
2015-Jul-30 11:33N 51°31' E 001°31'0 0.1
2015-Jul-30 10:33N 51°31' E 001°31'0 0.1
2015-Jul-30 09:33N 51°31' E 001°31'0 0.0
2015-Jul-30 08:33N 51°30' E 001°31'0 0.0
2015-Jul-30 07:33N 51°30' E 001°31'0 0.0
2015-Jul-30 06:33N 51°30' E 001°31'0 0.5
2015-Jul-30 05:33N 51°30' E 001°31'7 6.6
2015-Jul-30 04:34N 51°29' E 001°21'1111.4
2015-Jul-30 03:33N 51°30' E 001°02'1211.9
2015-Jul-30 02:33N 51°30' E 000°43'6 6.0
2015-Jul-30 01:33N 51°31' E 000°33'0 0.0
2015-Jul-30 00:33N 51°31' E 000°33'0 0.0
2015-Jul-29 23:30N 51°31' E 000°33'0 0.0
2015-Jul-29 22:33N 51°31' E 000°33'0 0.0
2015-Jul-29 21:30N 51°31' E 000°33'0 0.0
2015-Jul-29 20:33N 51°31' E 000°33'0 0.0
2015-Jul-29 19:33N 51°31' E 000°33'0 0.0
2015-Jul-29 18:33N 51°31' E 000°33'0 0.0
2015-Jul-29 17:33N 51°31' E 000°33'0 0.0
2015-Jul-29 16:30N 51°31' E 000°33'0 0.0
2015-Jul-29 15:33N 51°31' E 000°33'0 0.3
2015-Jul-29 14:34N 51°30' E 000°34'8 7.7
2015-Jul-29 13:33N 51°30' E 000°46'7 7.5
2015-Jul-29 12:34N 51°29' E 000°58'9 8.8
2015-Jul-29 11:34N 51°29' E 001°12'10 9.7
2015-Jul-29 10:34N 51°30' E 001°28'1 0.5
2015-Jul-29 09:33N 51°30' E 001°28'0 0.0
2015-Jul-29 08:33N 51°30' E 001°28'0 0.0
2015-Jul-29 07:33N 51°30' E 001°28'0 0.1
2015-Jul-29 06:33N 51°30' E 001°28'0 0.1
2015-Jul-29 05:33N 51°30' E 001°29'0 0.0
2015-Jul-29 04:33N 51°30' E 001°29'1 1.2
2015-Jul-29 03:33N 51°31' E 001°30'0 0.1
2015-Jul-29 02:32N 51°31' E 001°30'0 0.0
2015-Jul-29 01:32N 51°31' E 001°30'0 0.0
2015-Jul-29 00:32N 51°31' E 001°30'0 0.0
2015-Jul-28 23:32N 51°31' E 001°30'1 0.9
2015-Jul-28 22:33N 51°31' E 001°31'7 6.9
2015-Jul-28 21:33N 51°25' E 001°33'1211.7
2015-Jul-28 20:33N 51°13' E 001°37'9 8.7
2015-Jul-28 19:33N 51°05' E 001°42'6 6.2
2015-Jul-28 18:33N 51°02' E 001°51'8 8.2
2015-Jul-28 17:33N 51°03' E 002°04'5 5.1
2015-Jul-28 16:32N 51°01' E 002°11'1 0.2
2015-Jul-28 13:26N 51°01' E 002°11'14 7.3
2015-Jul-28 11:31N 51°02' E 001°48'7 7.0
2015-Jul-28 10:34N 51°07' E 001°41'6 6.4
2015-Jul-28 09:33N 51°13' E 001°37'8 8.2
2015-Jul-28 08:33N 51°21' E 001°35'9 9.2
2015-Jul-28 07:33N 51°29' E 001°28'1 1.1
2015-Jul-28 06:33N 51°30' E 001°28'0 0.1
2015-Jul-28 05:33N 51°30' E 001°28'0 0.1
2015-Jul-28 04:33N 51°30' E 001°28'0 0.0
2015-Jul-28 03:33N 51°30' E 001°28'0 0.0
2015-Jul-28 02:33N 51°30' E 001°28'0 0.0
2015-Jul-28 01:33N 51°30' E 001°28'0 0.0
2015-Jul-28 00:34N 51°30' E 001°28'0 0.0
2015-Jul-27 23:33N 51°30' E 001°28'0 0.0
2015-Jul-27 22:33N 51°30' E 001°28'0 0.0
2015-Jul-27 21:33N 51°30' E 001°28'0 0.0
2015-Jul-27 20:34N 51°30' E 001°28'2 1.5
2015-Jul-27 19:34N 51°29' E 001°30'4 4.0
2015-Jul-27 18:34N 51°25' E 001°30'6 6.4
2015-Jul-27 17:33N 51°28' E 001°21'9 9.3
2015-Jul-27 16:34N 51°29' E 001°06'10 9.6
2015-Jul-27 15:33N 51°29' E 000°51'1111.1
2015-Jul-27 14:34N 51°30' E 000°33'8 7.6
2015-Jul-27 13:33N 51°27' E 000°22'0 0.0
2015-Jul-27 12:34N 51°27' E 000°22'0 0.0
2015-Jul-27 11:33N 51°27' E 000°22'0 0.0
2015-Jul-27 10:34N 51°27' E 000°22'0 0.0
2015-Jul-27 09:34N 51°27' E 000°22'0 0.1
2015-Jul-27 08:33N 51°27' E 000°22'8 7.9
2015-Jul-27 07:33N 51°30' E 000°33'1010.2
2015-Jul-27 06:33N 51°30' E 000°50'5 5.0
2015-Jul-27 05:34N 51°30' E 000°58'0 0.1
2015-Jul-27 04:34N 51°30' E 000°58'0 0.1
2015-Jul-27 03:31N 51°30' E 000°58'0 0.0
2015-Jul-27 02:33N 51°30' E 000°58'1 1.5
2015-Jul-27 01:33N 51°30' E 001°00'9 8.9
2015-Jul-27 00:33N 51°29' E 001°14'9 8.6
2015-Jul-26 23:34N 51°28' E 001°28'1010.3
2015-Jul-26 22:34N 51°19' E 001°36'1111.3
2015-Jul-26 21:34N 51°08' E 001°29'5 5.0
2015-Jul-26 20:33N 51°08' E 001°21'1 0.2
2015-Jul-26 17:33N 51°07' E 001°20'6 5.9
2015-Jul-26 16:33N 51°08' E 001°29'9 8.9
2015-Jul-26 15:34N 51°16' E 001°36'10 9.8
2015-Jul-26 14:33N 51°26' E 001°33'5 5.1
2015-Jul-26 13:32N 51°30' E 001°30'0 0.0
2015-Jul-26 12:32N 51°31' E 001°30'0 0.0
2015-Jul-26 11:32N 51°31' E 001°30'0 0.1
2015-Jul-26 10:32N 51°31' E 001°30'0 0.4
2015-Jul-26 09:33N 51°31' E 001°30'1 0.9
2015-Jul-26 08:32N 51°30' E 001°29'0 0.1
2015-Jul-26 07:32N 51°30' E 001°28'0 0.0
2015-Jul-26 06:32N 51°30' E 001°28'0 0.0
2015-Jul-26 05:32N 51°30' E 001°28'0 0.0
2015-Jul-26 04:32N 51°30' E 001°28'0 0.0
2015-Jul-26 03:32N 51°30' E 001°28'0 0.0
2015-Jul-26 02:32N 51°30' E 001°28'0 0.1
2015-Jul-26 01:32N 51°30' E 001°29'1 1.0
2015-Jul-26 00:33N 51°30' E 001°30'4 4.4
2015-Jul-25 23:33N 51°26' E 001°32'9 9.5
2015-Jul-25 22:34N 51°17' E 001°37'9 9.3
2015-Jul-25 21:34N 51°08' E 001°37'8 8.1
2015-Jul-25 20:33N 51°16' E 001°37'10 9.6
2015-Jul-25 19:34N 51°25' E 001°33'6 5.7
2015-Jul-25 18:33N 51°30' E 001°28'0 0.0
2015-Jul-25 17:33N 51°30' E 001°28'0 0.0
2015-Jul-25 16:33N 51°30' E 001°28'0 0.0
2015-Jul-25 15:33N 51°30' E 001°28'0 0.0
2015-Jul-25 14:33N 51°30' E 001°28'0 0.0
2015-Jul-25 13:33N 51°30' E 001°29'0 0.0
2015-Jul-25 12:33N 51°30' E 001°29'0 0.0
2015-Jul-25 11:33N 51°30' E 001°29'0 0.0
2015-Jul-25 10:33N 51°30' E 001°29'0 0.0
2015-Jul-25 09:33N 51°30' E 001°29'0 0.0
2015-Jul-25 08:33N 51°30' E 001°29'0 0.0
2015-Jul-25 07:33N 51°30' E 001°29'0 0.0
2015-Jul-25 06:33N 51°30' E 001°29'0 0.0
2015-Jul-25 05:33N 51°30' E 001°29'0 0.1
2015-Jul-25 04:33N 51°30' E 001°28'0 0.0
2015-Jul-25 03:33N 51°30' E 001°28'0 0.0
2015-Jul-25 02:33N 51°30' E 001°28'0 0.0
2015-Jul-25 01:33N 51°30' E 001°28'0 0.0
2015-Jul-25 00:33N 51°30' E 001°29'0 0.1
2015-Jul-24 23:33N 51°30' E 001°29'10 9.6
2015-Jul-24 22:33N 51°29' E 001°13'1110.6
2015-Jul-24 21:33N 51°29' E 000°56'1110.7
2015-Jul-24 20:33N 51°30' E 000°39'1010.4
2015-Jul-24 19:34N 51°27' E 000°23'1 0.9
2015-Jul-24 18:33N 51°27' E 000°22'0 0.0
2015-Jul-24 17:34N 51°27' E 000°22'0 0.0
2015-Jul-24 16:34N 51°27' E 000°22'0 0.2
2015-Jul-24 15:34N 51°27' E 000°22'1 0.9
2015-Jul-24 14:34N 51°27' E 000°20'10 9.8
2015-Jul-24 13:33N 51°30' E 000°35'3 2.5
2015-Jul-24 12:31N 51°30' E 000°39'  
Track history (hours):
 
Tides and Currents Weather Stations Pressure Air Temp Water Temp Dewpoint Dewpoint Depression Visibility Wind Speed Wind Dir Waves Ship Positions

LS Concorde

Last reported at 2015-Aug-03 11:33 UTC. Time now 2015-Aug-03 13:07 UTC.
Position N 51°07' E 001°19'.

Length 99 m; draft 5.7 m.

Type: Tanker. MMSI: 236329000.

Date/timePositionNaut miles runAvg speedWind from/ knotsBaromVisibWave heightAir tempDewpointWater temp
2015-Aug-03 11:33N 51°07' E 001°19'0 0.0
2015-Aug-03 10:33N 51°07' E 001°19'0 0.3
2015-Aug-03 09:33N 51°07' E 001°20'7 6.5
2015-Aug-03 08:33N 51°08' E 001°30'7 6.6
2015-Aug-03 07:33N 51°14' E 001°36'4 3.9
2015-Aug-03 06:33N 51°17' E 001°40'7 6.9
2015-Aug-03 05:33N 51°10' E 001°36'10 9.9
2015-Aug-03 04:33N 51°03' E 001°46'9 8.9
2015-Aug-03 03:33N 51°03' E 002°00'8 8.3
2015-Aug-03 02:33N 51°04' E 002°13'5 5.1
2015-Aug-03 01:33N 51°03' E 002°21'0 0.5
2015-Aug-03 00:33N 51°03' E 002°22'0 0.0
2015-Aug-02 23:33N 51°03' E 002°22'0 0.0
2015-Aug-02 22:33N 51°03' E 002°22'0 0.1
2015-Aug-02 21:33N 51°03' E 002°22'1 1.4
2015-Aug-02 20:29N 51°03' E 002°20'0 0.0
2015-Aug-02 19:26N 51°03' E 002°20'0 0.0
2015-Aug-02 17:23N 51°03' E 002°19'0 0.0
2015-Aug-02 16:29N 51°03' E 002°19'0 0.0
2015-Aug-02 15:32N 51°03' E 002°19'0 0.0
2015-Aug-02 14:32N 51°03' E 002°20'1 1.1
2015-Aug-02 13:33N 51°03' E 002°21'5 4.7
2015-Aug-02 12:33N 51°04' E 002°14'1312.6
2015-Aug-02 11:33N 51°02' E 001°54'7 6.6
2015-Aug-02 10:33N 51°03' E 001°43'7 7.0
2015-Aug-02 09:33N 51°08' E 001°36'4 3.6
2015-Aug-02 08:33N 51°11' E 001°33'7 7.3
2015-Aug-02 07:33N 51°08' E 001°23'2 1.7
2015-Aug-02 06:33N 51°08' E 001°21'0 0.0
2015-Aug-02 05:31N 51°08' E 001°21'0 0.0
2015-Aug-02 04:33N 51°08' E 001°21'0 0.1
2015-Aug-02 03:24N 51°07' E 001°21'0 0.0
2015-Aug-02 02:30N 51°07' E 001°21'0 0.0
2015-Aug-02 01:33N 51°07' E 001°21'0 0.0
2015-Aug-02 00:33N 51°07' E 001°21'0 0.0
2015-Aug-01 23:31N 51°07' E 001°21'0 0.0
2015-Aug-01 22:33N 51°07' E 001°21'0 0.2
2015-Aug-01 21:28N 51°08' E 001°21'0 0.0
2015-Aug-01 20:22N 51°07' E 001°21'0 0.1
2015-Aug-01 19:28N 51°07' E 001°21'0 0.0
2015-Aug-01 18:19N 51°07' E 001°21'0 0.0
2015-Aug-01 17:31N 51°07' E 001°21'0 0.0
2015-Aug-01 16:31N 51°07' E 001°21'0 0.0
2015-Aug-01 15:31N 51°07' E 001°21'0 0.0
2015-Aug-01 14:31N 51°07' E 001°21'0 0.0
2015-Aug-01 13:31N 51°07' E 001°21'1 0.6
2015-Aug-01 12:32N 51°07' E 001°20'1 0.6
2015-Aug-01 11:33N 51°07' E 001°19'0 0.0
2015-Aug-01 10:33N 51°07' E 001°19'0 0.0
2015-Aug-01 09:33N 51°07' E 001°19'0 0.0
2015-Aug-01 08:33N 51°07' E 001°19'0 0.0
2015-Aug-01 07:33N 51°07' E 001°19'0 0.0
2015-Aug-01 06:34N 51°07' E 001°19'5 4.9
2015-Aug-01 05:33N 51°08' E 001°27'4 3.6
2015-Aug-01 04:33N 51°10' E 001°32'7 7.3
2015-Aug-01 03:33N 51°16' E 001°36'8 7.5
2015-Aug-01 02:33N 51°23' E 001°33'7 7.3
2015-Aug-01 01:33N 51°28' E 001°24'1010.2
2015-Aug-01 00:33N 51°29' E 001°08'9 9.0
2015-Jul-31 23:33N 51°29' E 000°53'8 8.4
2015-Jul-31 22:33N 51°30' E 000°40'4 4.0
2015-Jul-31 21:32N 51°31' E 000°33'0 0.0
2015-Jul-31 20:32N 51°31' E 000°33'0 0.0
2015-Jul-31 19:32N 51°31' E 000°33'0 0.0
2015-Jul-31 18:33N 51°31' E 000°33'0 0.0
2015-Jul-31 17:33N 51°31' E 000°33'0 0.0
2015-Jul-31 16:33N 51°31' E 000°33'0 0.0
2015-Jul-31 15:33N 51°31' E 000°33'0 0.0
2015-Jul-31 14:33N 51°31' E 000°33'0 0.0
2015-Jul-31 13:33N 51°31' E 000°33'0 0.0
2015-Jul-31 12:33N 51°31' E 000°33'0 0.0
2015-Jul-31 11:33N 51°31' E 000°33'0 0.0
2015-Jul-31 10:33N 51°31' E 000°33'0 0.0
2015-Jul-31 09:33N 51°31' E 000°33'0 0.0
2015-Jul-31 08:33N 51°31' E 000°33'7 7.3
2015-Jul-31 07:33N 51°30' E 000°45'8 7.9
2015-Jul-31 06:31N 51°30' E 000°58'0 0.0
2015-Jul-31 05:31N 51°30' E 000°58'0 0.0
2015-Jul-31 04:31N 51°30' E 000°58'0 0.0
2015-Jul-31 03:25N 51°30' E 000°58'0 0.0
2015-Jul-31 02:25N 51°30' E 000°58'0 0.0
2015-Jul-31 01:31N 51°30' E 000°58'0 0.1
2015-Jul-31 00:31N 51°30' E 000°58'0 0.1
2015-Jul-30 23:31N 51°30' E 000°58'0 0.0
2015-Jul-30 22:31N 51°30' E 000°58'1 1.3
2015-Jul-30 21:33N 51°30' E 000°56'1111.4
2015-Jul-30 20:33N 51°29' E 001°15'1010.1
2015-Jul-30 19:32N 51°30' E 001°31'0 0.0
2015-Jul-30 18:33N 51°30' E 001°31'0 0.1
2015-Jul-30 17:33N 51°30' E 001°31'0 0.0
2015-Jul-30 16:33N 51°30' E 001°31'0 0.0
2015-Jul-30 15:33N 51°30' E 001°31'0 0.1
2015-Jul-30 14:33N 51°31' E 001°31'0 0.0
2015-Jul-30 13:33N 51°31' E 001°31'0 0.0
2015-Jul-30 12:33N 51°31' E 001°31'0 0.2
2015-Jul-30 11:33N 51°31' E 001°31'0 0.1
2015-Jul-30 10:33N 51°31' E 001°31'0 0.1
2015-Jul-30 09:33N 51°31' E 001°31'0 0.0
2015-Jul-30 08:33N 51°30' E 001°31'0 0.0
2015-Jul-30 07:33N 51°30' E 001°31'0 0.0
2015-Jul-30 06:33N 51°30' E 001°31'0 0.5
2015-Jul-30 05:33N 51°30' E 001°31'7 6.6
2015-Jul-30 04:34N 51°29' E 001°21'1111.4
2015-Jul-30 03:33N 51°30' E 001°02'1211.9
2015-Jul-30 02:33N 51°30' E 000°43'6 6.0
2015-Jul-30 01:33N 51°31' E 000°33'0 0.0
2015-Jul-30 00:33N 51°31' E 000°33'0 0.0
2015-Jul-29 23:30N 51°31' E 000°33'0 0.0
2015-Jul-29 22:33N 51°31' E 000°33'0 0.0
2015-Jul-29 21:30N 51°31' E 000°33'0 0.0
2015-Jul-29 20:33N 51°31' E 000°33'0 0.0
2015-Jul-29 19:33N 51°31' E 000°33'0 0.0
2015-Jul-29 18:33N 51°31' E 000°33'0 0.0
2015-Jul-29 17:33N 51°31' E 000°33'0 0.0
2015-Jul-29 16:30N 51°31' E 000°33'0 0.0
2015-Jul-29 15:33N 51°31' E 000°33'0 0.3
2015-Jul-29 14:34N 51°30' E 000°34'8 7.7
2015-Jul-29 13:33N 51°30' E 000°46'7 7.5
2015-Jul-29 12:34N 51°29' E 000°58'9 8.8
2015-Jul-29 11:34N 51°29' E 001°12'10 9.7
2015-Jul-29 10:34N 51°30' E 001°28'1 0.5
2015-Jul-29 09:33N 51°30' E 001°28'0 0.0
2015-Jul-29 08:33N 51°30' E 001°28'0 0.0
2015-Jul-29 07:33N 51°30' E 001°28'0 0.1
2015-Jul-29 06:33N 51°30' E 001°28'0 0.1
2015-Jul-29 05:33N 51°30' E 001°29'0 0.0
2015-Jul-29 04:33N 51°30' E 001°29'1 1.2
2015-Jul-29 03:33N 51°31' E 001°30'0 0.1
2015-Jul-29 02:32N 51°31' E 001°30'0 0.0
2015-Jul-29 01:32N 51°31' E 001°30'0 0.0
2015-Jul-29 00:32N 51°31' E 001°30'0 0.0
2015-Jul-28 23:32N 51°31' E 001°30'1 0.9
2015-Jul-28 22:33N 51°31' E 001°31'7 6.9
2015-Jul-28 21:33N 51°25' E 001°33'1211.7
2015-Jul-28 20:33N 51°13' E 001°37'9 8.7
2015-Jul-28 19:33N 51°05' E 001°42'6 6.2
2015-Jul-28 18:33N 51°02' E 001°51'8 8.2
2015-Jul-28 17:33N 51°03' E 002°04'5 5.1
2015-Jul-28 16:32N 51°01' E 002°11'1 0.2
2015-Jul-28 13:26N 51°01' E 002°11'14 7.3
2015-Jul-28 11:31N 51°02' E 001°48'7 7.0
2015-Jul-28 10:34N 51°07' E 001°41'6 6.4
2015-Jul-28 09:33N 51°13' E 001°37'8 8.2
2015-Jul-28 08:33N 51°21' E 001°35'9 9.2
2015-Jul-28 07:33N 51°29' E 001°28'1 1.1
2015-Jul-28 06:33N 51°30' E 001°28'0 0.1
2015-Jul-28 05:33N 51°30' E 001°28'0 0.1
2015-Jul-28 04:33N 51°30' E 001°28'0 0.0
2015-Jul-28 03:33N 51°30' E 001°28'0 0.0
2015-Jul-28 02:33N 51°30' E 001°28'0 0.0
2015-Jul-28 01:33N 51°30' E 001°28'0 0.0
2015-Jul-28 00:34N 51°30' E 001°28'0 0.0
2015-Jul-27 23:33N 51°30' E 001°28'0 0.0
2015-Jul-27 22:33N 51°30' E 001°28'0 0.0
2015-Jul-27 21:33N 51°30' E 001°28'0 0.0
2015-Jul-27 20:34N 51°30' E 001°28'2 1.5
2015-Jul-27 19:34N 51°29' E 001°30'4 4.0
2015-Jul-27 18:34N 51°25' E 001°30'6 6.4
2015-Jul-27 17:33N 51°28' E 001°21'9 9.3
2015-Jul-27 16:34N 51°29' E 001°06'10 9.6
2015-Jul-27 15:33N 51°29' E 000°51'1111.1
2015-Jul-27 14:34N 51°30' E 000°33'8 7.6
2015-Jul-27 13:33N 51°27' E 000°22'0 0.0
2015-Jul-27 12:34N 51°27' E 000°22'0 0.0
2015-Jul-27 11:33N 51°27' E 000°22'0 0.0
2015-Jul-27 10:34N 51°27' E 000°22'0 0.0
2015-Jul-27 09:34N 51°27' E 000°22'0 0.1
2015-Jul-27 08:33N 51°27' E 000°22'8 7.9
2015-Jul-27 07:33N 51°30' E 000°33'1010.2
2015-Jul-27 06:33N 51°30' E 000°50'5 5.0
2015-Jul-27 05:34N 51°30' E 000°58'0 0.1
2015-Jul-27 04:34N 51°30' E 000°58'0 0.1
2015-Jul-27 03:31N 51°30' E 000°58'0 0.0
2015-Jul-27 02:33N 51°30' E 000°58'1 1.5
2015-Jul-27 01:33N 51°30' E 001°00'9 8.9
2015-Jul-27 00:33N 51°29' E 001°14'9 8.6
2015-Jul-26 23:34N 51°28' E 001°28'1010.3
2015-Jul-26 22:34N 51°19' E 001°36'1111.3
2015-Jul-26 21:34N 51°08' E 001°29'5 5.0
2015-Jul-26 20:33N 51°08' E 001°21'1 0.2
2015-Jul-26 17:33N 51°07' E 001°20'6 5.9
2015-Jul-26 16:33N 51°08' E 001°29'9 8.9
2015-Jul-26 15:34N 51°16' E 001°36'10 9.8
2015-Jul-26 14:33N 51°26' E 001°33'5 5.1
2015-Jul-26 13:32N 51°30' E 001°30'0 0.0
2015-Jul-26 12:32N 51°31' E 001°30'0 0.0
2015-Jul-26 11:32N 51°31' E 001°30'0 0.1
2015-Jul-26 10:32N 51°31' E 001°30'0 0.4
2015-Jul-26 09:33N 51°31' E 001°30'1 0.9
2015-Jul-26 08:32N 51°30' E 001°29'0 0.1
2015-Jul-26 07:32N 51°30' E 001°28'0 0.0
2015-Jul-26 06:32N 51°30' E 001°28'0 0.0
2015-Jul-26 05:32N 51°30' E 001°28'0 0.0
2015-Jul-26 04:32N 51°30' E 001°28'0 0.0
2015-Jul-26 03:32N 51°30' E 001°28'0 0.0
2015-Jul-26 02:32N 51°30' E 001°28'0 0.1
2015-Jul-26 01:32N 51°30' E 001°29'1 1.0
2015-Jul-26 00:33N 51°30' E 001°30'4 4.4
2015-Jul-25 23:33N 51°26' E 001°32'9 9.5
2015-Jul-25 22:34N 51°17' E 001°37'9 9.3
2015-Jul-25 21:34N 51°08' E 001°37'8 8.1
2015-Jul-25 20:33N 51°16' E 001°37'10 9.6
2015-Jul-25 19:34N 51°25' E 001°33'6 5.7
2015-Jul-25 18:33N 51°30' E 001°28'0 0.0
2015-Jul-25 17:33N 51°30' E 001°28'0 0.0
2015-Jul-25 16:33N 51°30' E 001°28'0 0.0
2015-Jul-25 15:33N 51°30' E 001°28'0 0.0
2015-Jul-25 14:33N 51°30' E 001°28'0 0.0
2015-Jul-25 13:33N 51°30' E 001°29'0 0.0
2015-Jul-25 12:33N 51°30' E 001°29'0 0.0
2015-Jul-25 11:33N 51°30' E 001°29'0 0.0
2015-Jul-25 10:33N 51°30' E 001°29'0 0.0
2015-Jul-25 09:33N 51°30' E 001°29'0 0.0
2015-Jul-25 08:33N 51°30' E 001°29'0 0.0
2015-Jul-25 07:33N 51°30' E 001°29'0 0.0
2015-Jul-25 06:33N 51°30' E 001°29'0 0.0
2015-Jul-25 05:33N 51°30' E 001°29'0 0.1
2015-Jul-25 04:33N 51°30' E 001°28'0 0.0
2015-Jul-25 03:33N 51°30' E 001°28'0 0.0
2015-Jul-25 02:33N 51°30' E 001°28'0 0.0
2015-Jul-25 01:33N 51°30' E 001°28'0 0.0
2015-Jul-25 00:33N 51°30' E 001°29'0 0.1
2015-Jul-24 23:33N 51°30' E 001°29'10 9.6
2015-Jul-24 22:33N 51°29' E 001°13'1110.6
2015-Jul-24 21:33N 51°29' E 000°56'1110.7
2015-Jul-24 20:33N 51°30' E 000°39'1010.4
2015-Jul-24 19:34N 51°27' E 000°23'1 0.9
2015-Jul-24 18:33N 51°27' E 000°22'0 0.0
2015-Jul-24 17:34N 51°27' E 000°22'0 0.0
2015-Jul-24 16:34N 51°27' E 000°22'0 0.2
2015-Jul-24 15:34N 51°27' E 000°22'1 0.9
2015-Jul-24 14:34N 51°27' E 000°20'10 9.8
2015-Jul-24 13:33N 51°30' E 000°35'3 2.5
2015-Jul-24 12:31N 51°30' E 000°39'  

Dump ship's entire track history